sensor_id;sensor_type;location;lat;lon;timestamp;temperature;humidity
9941;DHT22;5009;50.656;7.188;2022-10-28T00:02:00;18.60;99.90
9941;DHT22;5009;50.656;7.188;2022-10-28T00:04:26;18.60;99.90
9941;DHT22;5009;50.656;7.188;2022-10-28T00:06:51;18.60;99.90
9941;DHT22;5009;50.656;7.188;2022-10-28T00:09:17;18.60;99.90
9941;DHT22;5009;50.656;7.188;2022-10-28T00:11:42;18.60;99.90
9941;DHT22;5009;50.656;7.188;2022-10-28T00:14:09;18.70;99.90
9941;DHT22;5009;50.656;7.188;2022-10-28T00:16:36;18.60;99.90
9941;DHT22;5009;50.656;7.188;2022-10-28T00:19:03;18.60;99.90
9941;DHT22;5009;50.656;7.188;2022-10-28T00:21:31;18.70;99.90
9941;DHT22;5009;50.656;7.188;2022-10-28T00:23:57;18.70;99.90
9941;DHT22;5009;50.656;7.188;2022-10-28T00:26:28;18.70;99.90
9941;DHT22;5009;50.656;7.188;2022-10-28T00:29:00;18.70;99.90
9941;DHT22;5009;50.656;7.188;2022-10-28T00:31:28;18.70;99.90
9941;DHT22;5009;50.656;7.188;2022-10-28T00:33:54;18.80;99.90
9941;DHT22;5009;50.656;7.188;2022-10-28T00:36:22;18.70;99.90
9941;DHT22;5009;50.656;7.188;2022-10-28T00:38:49;18.70;99.90
9941;DHT22;5009;50.656;7.188;2022-10-28T00:41:21;18.70;99.90
9941;DHT22;5009;50.656;7.188;2022-10-28T00:43:52;18.70;99.90
9941;DHT22;5009;50.656;7.188;2022-10-28T00:48:49;18.70;99.90
9941;DHT22;5009;50.656;7.188;2022-10-28T00:51:16;18.70;99.90
9941;DHT22;5009;50.656;7.188;2022-10-28T00:53:44;18.70;99.90
9941;DHT22;5009;50.656;7.188;2022-10-28T00:56:14;18.70;99.90
9941;DHT22;5009;50.656;7.188;2022-10-28T00:58:40;18.70;99.90
9941;DHT22;5009;50.656;7.188;2022-10-28T01:01:06;18.70;99.90
9941;DHT22;5009;50.656;7.188;2022-10-28T01:03:31;18.70;99.90
9941;DHT22;5009;50.656;7.188;2022-10-28T01:05:57;18.60;99.90
9941;DHT22;5009;50.656;7.188;2022-10-28T01:08:23;18.60;99.90
9941;DHT22;5009;50.656;7.188;2022-10-28T01:18:48;18.60;99.90
9941;DHT22;5009;50.656;7.188;2022-10-28T01:21:21;18.60;99.90
9941;DHT22;5009;50.656;7.188;2022-10-28T01:23:58;18.60;99.90
9941;DHT22;5009;50.656;7.188;2022-10-28T01:29:43;18.60;99.90
9941;DHT22;5009;50.656;7.188;2022-10-28T01:35:00;18.60;99.90
9941;DHT22;5009;50.656;7.188;2022-10-28T01:37:37;18.60;99.90
9941;DHT22;5009;50.656;7.188;2022-10-28T01:43:03;18.60;99.90
9941;DHT22;5009;50.656;7.188;2022-10-28T01:45:37;18.70;99.90
9941;DHT22;5009;50.656;7.188;2022-10-28T01:48:13;18.70;99.90
9941;DHT22;5009;50.656;7.188;2022-10-28T01:53:13;18.70;99.90
9941;DHT22;5009;50.656;7.188;2022-10-28T01:55:41;18.70;99.90
9941;DHT22;5009;50.656;7.188;2022-10-28T01:58:11;18.70;99.90
9941;DHT22;5009;50.656;7.188;2022-10-28T02:00:38;18.80;99.90
9941;DHT22;5009;50.656;7.188;2022-10-28T02:03:06;18.80;99.90
9941;DHT22;5009;50.656;7.188;2022-10-28T02:05:45;18.80;99.90
9941;DHT22;5009;50.656;7.188;2022-10-28T02:18:50;18.80;99.90
9941;DHT22;5009;50.656;7.188;2022-10-28T02:24:34;18.90;99.90
9941;DHT22;5009;50.656;7.188;2022-10-28T02:27:20;18.90;99.90
9941;DHT22;5009;50.656;7.188;2022-10-28T02:30:06;18.90;99.90
9941;DHT22;5009;50.656;7.188;2022-10-28T02:32:36;18.90;99.90
9941;DHT22;5009;50.656;7.188;2022-10-28T02:35:05;18.90;99.90
9941;DHT22;5009;50.656;7.188;2022-10-28T02:37:33;18.90;99.90
9941;DHT22;5009;50.656;7.188;2022-10-28T02:40:03;18.80;99.90
9941;DHT22;5009;50.656;7.188;2022-10-28T02:42:33;18.80;99.90
9941;DHT22;5009;50.656;7.188;2022-10-28T02:45:06;18.80;99.90
9941;DHT22;5009;50.656;7.188;2022-10-28T02:47:34;18.80;99.90
9941;DHT22;5009;50.656;7.188;2022-10-28T02:50:05;18.80;99.90
9941;DHT22;5009;50.656;7.188;2022-10-28T02:52:32;18.70;99.90
9941;DHT22;5009;50.656;7.188;2022-10-28T02:55:01;18.80;99.90
9941;DHT22;5009;50.656;7.188;2022-10-28T02:57:38;18.80;99.90
9941;DHT22;5009;50.656;7.188;2022-10-28T03:00:08;18.80;99.90
9941;DHT22;5009;50.656;7.188;2022-10-28T03:02:34;18.70;99.90
9941;DHT22;5009;50.656;7.188;2022-10-28T03:05:00;18.70;99.90
9941;DHT22;5009;50.656;7.188;2022-10-28T03:07:26;18.70;99.90
9941;DHT22;5009;50.656;7.188;2022-10-28T03:09:51;18.70;99.90
9941;DHT22;5009;50.656;7.188;2022-10-28T03:12:17;18.60;99.90
9941;DHT22;5009;50.656;7.188;2022-10-28T03:14:42;18.70;99.90
9941;DHT22;5009;50.656;7.188;2022-10-28T03:17:08;18.60;99.90
9941;DHT22;5009;50.656;7.188;2022-10-28T03:19:33;18.60;99.90
9941;DHT22;5009;50.656;7.188;2022-10-28T03:21:59;18.60;99.90
9941;DHT22;5009;50.656;7.188;2022-10-28T03:24:25;18.60;99.90
9941;DHT22;5009;50.656;7.188;2022-10-28T03:26:50;18.60;99.90
9941;DHT22;5009;50.656;7.188;2022-10-28T03:29:16;18.60;99.90
9941;DHT22;5009;50.656;7.188;2022-10-28T03:31:41;18.60;99.90
9941;DHT22;5009;50.656;7.188;2022-10-28T03:34:07;18.50;99.90
9941;DHT22;5009;50.656;7.188;2022-10-28T03:36:33;18.50;99.90
9941;DHT22;5009;50.656;7.188;2022-10-28T03:38:58;18.50;99.90
9941;DHT22;5009;50.656;7.188;2022-10-28T03:41:24;18.50;99.90
9941;DHT22;5009;50.656;7.188;2022-10-28T03:43:49;18.50;99.90
9941;DHT22;5009;50.656;7.188;2022-10-28T03:46:15;18.50;99.90
9941;DHT22;5009;50.656;7.188;2022-10-28T03:48:40;18.50;99.90
9941;DHT22;5009;50.656;7.188;2022-10-28T03:51:06;18.50;99.90
9941;DHT22;5009;50.656;7.188;2022-10-28T03:53:32;18.40;99.90
9941;DHT22;5009;50.656;7.188;2022-10-28T03:55:58;18.40;99.90
9941;DHT22;5009;50.656;7.188;2022-10-28T03:58:25;18.40;99.90
9941;DHT22;5009;50.656;7.188;2022-10-28T04:00:52;18.40;99.90
9941;DHT22;5009;50.656;7.188;2022-10-28T04:03:19;18.30;99.90
9941;DHT22;5009;50.656;7.188;2022-10-28T04:05:45;18.30;99.90
9941;DHT22;5009;50.656;7.188;2022-10-28T04:08:13;18.30;99.90
9941;DHT22;5009;50.656;7.188;2022-10-28T04:10:38;18.20;99.90
9941;DHT22;5009;50.656;7.188;2022-10-28T04:13:06;18.20;99.90
9941;DHT22;5009;50.656;7.188;2022-10-28T04:15:32;18.20;99.90
9941;DHT22;5009;50.656;7.188;2022-10-28T04:17:58;18.20;99.90
9941;DHT22;5009;50.656;7.188;2022-10-28T04:20:24;18.20;99.90
9941;DHT22;5009;50.656;7.188;2022-10-28T04:22:49;18.20;99.90
9941;DHT22;5009;50.656;7.188;2022-10-28T04:25:15;18.20;99.90
9941;DHT22;5009;50.656;7.188;2022-10-28T04:27:43;18.20;99.90
9941;DHT22;5009;50.656;7.188;2022-10-28T04:30:09;18.20;99.90
9941;DHT22;5009;50.656;7.188;2022-10-28T04:32:37;18.20;99.90
9941;DHT22;5009;50.656;7.188;2022-10-28T04:35:03;18.20;99.90
9941;DHT22;5009;50.656;7.188;2022-10-28T04:37:29;18.20;99.90
9941;DHT22;5009;50.656;7.188;2022-10-28T04:39:54;18.20;99.90
9941;DHT22;5009;50.656;7.188;2022-10-28T04:42:22;18.20;99.90
9941;DHT22;5009;50.656;7.188;2022-10-28T04:44:47;18.10;99.90
9941;DHT22;5009;50.656;7.188;2022-10-28T04:47:13;18.10;99.90
9941;DHT22;5009;50.656;7.188;2022-10-28T04:49:38;18.20;99.90
9941;DHT22;5009;50.656;7.188;2022-10-28T04:52:04;18.10;99.90
9941;DHT22;5009;50.656;7.188;2022-10-28T04:54:30;18.10;99.90
9941;DHT22;5009;50.656;7.188;2022-10-28T04:56:55;18.10;99.90
9941;DHT22;5009;50.656;7.188;2022-10-28T04:59:21;18.10;99.90
9941;DHT22;5009;50.656;7.188;2022-10-28T05:01:46;18.10;99.90
9941;DHT22;5009;50.656;7.188;2022-10-28T05:04:12;18.10;99.90
9941;DHT22;5009;50.656;7.188;2022-10-28T05:06:38;18.10;99.90
9941;DHT22;5009;50.656;7.188;2022-10-28T05:09:03;18.10;99.90
9941;DHT22;5009;50.656;7.188;2022-10-28T05:11:29;18.10;99.90
9941;DHT22;5009;50.656;7.188;2022-10-28T05:13:55;18.10;99.90
9941;DHT22;5009;50.656;7.188;2022-10-28T05:16:20;18.10;99.90
9941;DHT22;5009;50.656;7.188;2022-10-28T05:18:46;18.10;99.90
9941;DHT22;5009;50.656;7.188;2022-10-28T05:21:11;18.10;99.90
9941;DHT22;5009;50.656;7.188;2022-10-28T05:23:37;18.10;99.90
9941;DHT22;5009;50.656;7.188;2022-10-28T05:26:02;18.10;99.90
9941;DHT22;5009;50.656;7.188;2022-10-28T05:28:28;18.10;99.90
9941;DHT22;5009;50.656;7.188;2022-10-28T05:30:54;18.10;99.90
9941;DHT22;5009;50.656;7.188;2022-10-28T05:33:19;18.10;99.90
9941;DHT22;5009;50.656;7.188;2022-10-28T05:35:45;18.10;99.90
9941;DHT22;5009;50.656;7.188;2022-10-28T05:38:11;18.10;99.90
9941;DHT22;5009;50.656;7.188;2022-10-28T05:40:36;18.00;99.90
9941;DHT22;5009;50.656;7.188;2022-10-28T05:43:02;18.00;99.90
9941;DHT22;5009;50.656;7.188;2022-10-28T05:45:28;18.00;99.90
9941;DHT22;5009;50.656;7.188;2022-10-28T05:47:53;18.00;99.90
9941;DHT22;5009;50.656;7.188;2022-10-28T05:50:19;18.00;99.90
9941;DHT22;5009;50.656;7.188;2022-10-28T05:55:11;18.00;99.90
9941;DHT22;5009;50.656;7.188;2022-10-28T05:57:37;18.00;99.90
9941;DHT22;5009;50.656;7.188;2022-10-28T06:00:03;18.00;99.90
9941;DHT22;5009;50.656;7.188;2022-10-28T06:02:29;17.90;99.90
9941;DHT22;5009;50.656;7.188;2022-10-28T06:04:54;17.80;99.90
9941;DHT22;5009;50.656;7.188;2022-10-28T06:07:20;17.80;99.90
9941;DHT22;5009;50.656;7.188;2022-10-28T06:09:46;17.80;99.90
9941;DHT22;5009;50.656;7.188;2022-10-28T06:12:11;17.70;99.90
9941;DHT22;5009;50.656;7.188;2022-10-28T06:14:37;17.70;99.90
9941;DHT22;5009;50.656;7.188;2022-10-28T06:17:02;17.70;99.90
9941;DHT22;5009;50.656;7.188;2022-10-28T06:19:28;17.60;99.90
9941;DHT22;5009;50.656;7.188;2022-10-28T06:21:53;17.60;99.90
9941;DHT22;5009;50.656;7.188;2022-10-28T06:24:19;17.60;99.90
9941;DHT22;5009;50.656;7.188;2022-10-28T06:26:44;17.50;99.90
9941;DHT22;5009;50.656;7.188;2022-10-28T06:29:10;17.50;99.90
9941;DHT22;5009;50.656;7.188;2022-10-28T06:31:42;17.40;99.90
9941;DHT22;5009;50.656;7.188;2022-10-28T06:34:11;17.50;99.90
9941;DHT22;5009;50.656;7.188;2022-10-28T06:36:37;17.50;99.90
9941;DHT22;5009;50.656;7.188;2022-10-28T06:39:04;17.50;99.90
9941;DHT22;5009;50.656;7.188;2022-10-28T06:41:29;17.50;99.90
9941;DHT22;5009;50.656;7.188;2022-10-28T06:43:55;17.50;99.90
9941;DHT22;5009;50.656;7.188;2022-10-28T06:46:20;17.50;99.90
9941;DHT22;5009;50.656;7.188;2022-10-28T06:48:46;17.50;99.90
9941;DHT22;5009;50.656;7.188;2022-10-28T06:51:12;17.50;99.90
9941;DHT22;5009;50.656;7.188;2022-10-28T06:53:37;17.50;99.90
9941;DHT22;5009;50.656;7.188;2022-10-28T06:56:03;17.60;99.90
9941;DHT22;5009;50.656;7.188;2022-10-28T06:58:29;17.60;99.90
9941;DHT22;5009;50.656;7.188;2022-10-28T07:00:54;17.60;99.90
9941;DHT22;5009;50.656;7.188;2022-10-28T07:03:20;17.70;99.90
9941;DHT22;5009;50.656;7.188;2022-10-28T07:05:47;17.70;99.90
9941;DHT22;5009;50.656;7.188;2022-10-28T07:08:13;17.80;99.90
9941;DHT22;5009;50.656;7.188;2022-10-28T07:10:40;17.80;99.90
9941;DHT22;5009;50.656;7.188;2022-10-28T07:13:06;17.80;99.90
9941;DHT22;5009;50.656;7.188;2022-10-28T07:15:31;17.90;99.90
9941;DHT22;5009;50.656;7.188;2022-10-28T07:17:58;17.90;99.90
9941;DHT22;5009;50.656;7.188;2022-10-28T07:20:25;18.00;99.90
9941;DHT22;5009;50.656;7.188;2022-10-28T07:22:55;18.10;99.90
9941;DHT22;5009;50.656;7.188;2022-10-28T07:25:21;18.10;99.90
9941;DHT22;5009;50.656;7.188;2022-10-28T07:27:46;18.20;99.90
9941;DHT22;5009;50.656;7.188;2022-10-28T07:30:12;18.30;99.90
9941;DHT22;5009;50.656;7.188;2022-10-28T07:32:38;18.30;99.90
9941;DHT22;5009;50.656;7.188;2022-10-28T07:35:03;18.40;99.90
9941;DHT22;5009;50.656;7.188;2022-10-28T07:37:29;18.50;99.90
9941;DHT22;5009;50.656;7.188;2022-10-28T07:39:55;18.50;99.90
9941;DHT22;5009;50.656;7.188;2022-10-28T07:42:20;18.50;99.90
9941;DHT22;5009;50.656;7.188;2022-10-28T07:44:46;18.60;99.90
9941;DHT22;5009;50.656;7.188;2022-10-28T07:47:11;18.60;99.90
9941;DHT22;5009;50.656;7.188;2022-10-28T07:49:37;18.70;99.90
9941;DHT22;5009;50.656;7.188;2022-10-28T07:52:02;18.80;99.90
9941;DHT22;5009;50.656;7.188;2022-10-28T07:54:28;18.70;99.90
9941;DHT22;5009;50.656;7.188;2022-10-28T07:56:56;18.80;99.90
9941;DHT22;5009;50.656;7.188;2022-10-28T07:59:23;18.90;99.90
9941;DHT22;5009;50.656;7.188;2022-10-28T08:01:49;18.90;99.90
9941;DHT22;5009;50.656;7.188;2022-10-28T08:04:14;18.90;99.90
9941;DHT22;5009;50.656;7.188;2022-10-28T08:06:40;19.00;99.90
9941;DHT22;5009;50.656;7.188;2022-10-28T08:09:05;19.00;99.90
9941;DHT22;5009;50.656;7.188;2022-10-28T08:11:31;18.90;99.90
9941;DHT22;5009;50.656;7.188;2022-10-28T08:13:56;19.00;99.90
9941;DHT22;5009;50.656;7.188;2022-10-28T08:16:22;19.00;99.90
9941;DHT22;5009;50.656;7.188;2022-10-28T08:18:48;19.10;99.90
9941;DHT22;5009;50.656;7.188;2022-10-28T08:21:14;19.10;99.90
9941;DHT22;5009;50.656;7.188;2022-10-28T08:23:40;19.10;99.90
9941;DHT22;5009;50.656;7.188;2022-10-28T08:26:11;19.20;99.90
9941;DHT22;5009;50.656;7.188;2022-10-28T08:28:36;19.20;99.90
9941;DHT22;5009;50.656;7.188;2022-10-28T08:31:03;19.30;99.90
9941;DHT22;5009;50.656;7.188;2022-10-28T08:33:36;19.30;99.90
9941;DHT22;5009;50.656;7.188;2022-10-28T08:36:02;19.40;99.90
9941;DHT22;5009;50.656;7.188;2022-10-28T08:38:28;19.40;99.90
9941;DHT22;5009;50.656;7.188;2022-10-28T08:41:32;19.50;99.90
9941;DHT22;5009;50.656;7.188;2022-10-28T08:47:29;19.70;99.90
9941;DHT22;5009;50.656;7.188;2022-10-28T08:50:19;19.80;99.90
9941;DHT22;5009;50.656;7.188;2022-10-28T08:52:51;19.90;99.90
9941;DHT22;5009;50.656;7.188;2022-10-28T08:57:54;20.10;99.90
9941;DHT22;5009;50.656;7.188;2022-10-28T09:00:26;20.20;99.90
9941;DHT22;5009;50.656;7.188;2022-10-28T09:02:58;20.20;99.90
9941;DHT22;5009;50.656;7.188;2022-10-28T09:05:26;20.40;99.90
9941;DHT22;5009;50.656;7.188;2022-10-28T09:07:52;20.50;99.90
9941;DHT22;5009;50.656;7.188;2022-10-28T09:11:11;20.50;99.90
9941;DHT22;5009;50.656;7.188;2022-10-28T09:21:52;21.00;99.90
9941;DHT22;5009;50.656;7.188;2022-10-28T09:24:24;21.00;99.90
9941;DHT22;5009;50.656;7.188;2022-10-28T09:26:54;21.00;99.90
9941;DHT22;5009;50.656;7.188;2022-10-28T09:32:15;21.00;99.90
9941;DHT22;5009;50.656;7.188;2022-10-28T09:34:46;21.10;99.90
9941;DHT22;5009;50.656;7.188;2022-10-28T09:37:22;21.00;99.90
9941;DHT22;5009;50.656;7.188;2022-10-28T09:39:56;21.20;99.90
9941;DHT22;5009;50.656;7.188;2022-10-28T09:42:33;21.30;99.90
9941;DHT22;5009;50.656;7.188;2022-10-28T09:45:10;21.30;99.90
9941;DHT22;5009;50.656;7.188;2022-10-28T09:47:54;21.30;99.90
9941;DHT22;5009;50.656;7.188;2022-10-28T09:50:24;21.40;99.90
9941;DHT22;5009;50.656;7.188;2022-10-28T09:55:35;21.60;99.90
9941;DHT22;5009;50.656;7.188;2022-10-28T09:58:04;21.70;99.90
9941;DHT22;5009;50.656;7.188;2022-10-28T10:00:30;21.70;99.90
9941;DHT22;5009;50.656;7.188;2022-10-28T10:02:57;21.80;99.90
9941;DHT22;5009;50.656;7.188;2022-10-28T10:05:23;21.80;99.90
9941;DHT22;5009;50.656;7.188;2022-10-28T10:07:55;21.80;99.90
9941;DHT22;5009;50.656;7.188;2022-10-28T10:10:33;21.90;99.90
9941;DHT22;5009;50.656;7.188;2022-10-28T10:13:02;21.90;99.80
9941;DHT22;5009;50.656;7.188;2022-10-28T10:15:44;21.90;99.90
9941;DHT22;5009;50.656;7.188;2022-10-28T10:18:31;22.00;99.90
9941;DHT22;5009;50.656;7.188;2022-10-28T10:21:00;22.00;99.90
9941;DHT22;5009;50.656;7.188;2022-10-28T10:23:34;22.00;99.90
9941;DHT22;5009;50.656;7.188;2022-10-28T10:26:15;22.00;99.50
9941;DHT22;5009;50.656;7.188;2022-10-28T10:28:59;22.00;99.90
9941;DHT22;5009;50.656;7.188;2022-10-28T10:31:26;22.00;99.90
9941;DHT22;5009;50.656;7.188;2022-10-28T10:33:53;22.10;99.90
9941;DHT22;5009;50.656;7.188;2022-10-28T10:36:22;22.00;99.90
9941;DHT22;5009;50.656;7.188;2022-10-28T10:38:54;22.20;99.90
9941;DHT22;5009;50.656;7.188;2022-10-28T10:41:40;22.30;99.90
9941;DHT22;5009;50.656;7.188;2022-10-28T10:49:27;22.30;99.60
9941;DHT22;5009;50.656;7.188;2022-10-28T10:51:54;22.50;99.90
9941;DHT22;5009;50.656;7.188;2022-10-28T10:54:22;22.60;99.20
9941;DHT22;5009;50.656;7.188;2022-10-28T10:56:48;22.50;99.20
9941;DHT22;5009;50.656;7.188;2022-10-28T10:59:24;22.70;99.40
9941;DHT22;5009;50.656;7.188;2022-10-28T11:01:51;22.80;99.50
9941;DHT22;5009;50.656;7.188;2022-10-28T11:04:18;22.70;99.00
9941;DHT22;5009;50.656;7.188;2022-10-28T11:06:49;22.80;99.00
9941;DHT22;5009;50.656;7.188;2022-10-28T11:11:51;22.70;99.00
9941;DHT22;5009;50.656;7.188;2022-10-28T11:14:26;22.70;99.40
9941;DHT22;5009;50.656;7.188;2022-10-28T11:16:55;22.70;98.90
9941;DHT22;5009;50.656;7.188;2022-10-28T11:19:23;22.80;99.10
9941;DHT22;5009;50.656;7.188;2022-10-28T11:30:21;23.00;98.60
9941;DHT22;5009;50.656;7.188;2022-10-28T11:33:17;23.10;98.50
9941;DHT22;5009;50.656;7.188;2022-10-28T11:35:48;23.20;98.60
9941;DHT22;5009;50.656;7.188;2022-10-28T11:41:13;23.20;98.50
9941;DHT22;5009;50.656;7.188;2022-10-28T11:43:51;23.10;98.30
9941;DHT22;5009;50.656;7.188;2022-10-28T11:49:45;23.10;99.00
9941;DHT22;5009;50.656;7.188;2022-10-28T11:57:51;23.20;98.70
9941;DHT22;5009;50.656;7.188;2022-10-28T12:00:42;23.20;98.10
9941;DHT22;5009;50.656;7.188;2022-10-28T12:09:36;23.20;97.90
9941;DHT22;5009;50.656;7.188;2022-10-28T12:17:39;23.30;97.90
9941;DHT22;5009;50.656;7.188;2022-10-28T12:22:48;23.40;97.60
9941;DHT22;5009;50.656;7.188;2022-10-28T12:25:18;23.40;97.40
9941;DHT22;5009;50.656;7.188;2022-10-28T12:27:48;23.40;97.70
9941;DHT22;5009;50.656;7.188;2022-10-28T12:30:26;23.40;97.10
9941;DHT22;5009;50.656;7.188;2022-10-28T12:32:59;23.40;97.10
9941;DHT22;5009;50.656;7.188;2022-10-28T12:35:38;23.40;97.40
9941;DHT22;5009;50.656;7.188;2022-10-28T12:38:22;23.50;97.30
9941;DHT22;5009;50.656;7.188;2022-10-28T12:40:55;23.50;97.40
9941;DHT22;5009;50.656;7.188;2022-10-28T12:43:32;23.60;97.00
9941;DHT22;5009;50.656;7.188;2022-10-28T12:45:59;23.60;97.30
9941;DHT22;5009;50.656;7.188;2022-10-28T12:48:30;23.60;97.20
9941;DHT22;5009;50.656;7.188;2022-10-28T12:51:36;23.70;97.10
9941;DHT22;5009;50.656;7.188;2022-10-28T12:54:27;23.70;97.00
9941;DHT22;5009;50.656;7.188;2022-10-28T12:57:02;23.80;97.00
9941;DHT22;5009;50.656;7.188;2022-10-28T12:59:37;23.80;96.60
9941;DHT22;5009;50.656;7.188;2022-10-28T13:02:12;23.80;96.80
9941;DHT22;5009;50.656;7.188;2022-10-28T13:04:39;23.80;96.20
9941;DHT22;5009;50.656;7.188;2022-10-28T13:09:50;23.90;96.40
9941;DHT22;5009;50.656;7.188;2022-10-28T13:12:28;23.90;96.20
9941;DHT22;5009;50.656;7.188;2022-10-28T13:15:21;23.90;96.50
9941;DHT22;5009;50.656;7.188;2022-10-28T13:18:24;23.90;96.30
9941;DHT22;5009;50.656;7.188;2022-10-28T13:26:23;23.70;96.30
9941;DHT22;5009;50.656;7.188;2022-10-28T13:28:54;23.80;96.40
9941;DHT22;5009;50.656;7.188;2022-10-28T13:31:21;23.80;96.30
9941;DHT22;5009;50.656;7.188;2022-10-28T13:33:54;23.80;96.10
9941;DHT22;5009;50.656;7.188;2022-10-28T13:36:35;23.80;96.50
9941;DHT22;5009;50.656;7.188;2022-10-28T13:39:06;23.70;96.00
9941;DHT22;5009;50.656;7.188;2022-10-28T13:41:45;23.70;96.20
9941;DHT22;5009;50.656;7.188;2022-10-28T13:44:25;23.70;96.40
9941;DHT22;5009;50.656;7.188;2022-10-28T13:47:01;23.70;96.40
9941;DHT22;5009;50.656;7.188;2022-10-28T13:49:34;23.70;96.50
9941;DHT22;5009;50.656;7.188;2022-10-28T13:52:19;23.70;96.30
9941;DHT22;5009;50.656;7.188;2022-10-28T13:57:31;23.70;96.20
9941;DHT22;5009;50.656;7.188;2022-10-28T14:00:05;23.60;95.90
9941;DHT22;5009;50.656;7.188;2022-10-28T14:02:53;23.60;96.20
9941;DHT22;5009;50.656;7.188;2022-10-28T14:05:48;23.60;96.30
9941;DHT22;5009;50.656;7.188;2022-10-28T14:08:24;23.50;96.10
9941;DHT22;5009;50.656;7.188;2022-10-28T14:11:12;23.50;96.10
9941;DHT22;5009;50.656;7.188;2022-10-28T14:13:49;23.50;96.10
9941;DHT22;5009;50.656;7.188;2022-10-28T14:19:00;23.40;96.00
9941;DHT22;5009;50.656;7.188;2022-10-28T14:21:50;23.40;95.70
9941;DHT22;5009;50.656;7.188;2022-10-28T14:24:40;23.40;95.50
9941;DHT22;5009;50.656;7.188;2022-10-28T14:48:53;23.20;95.10
9941;DHT22;5009;50.656;7.188;2022-10-28T14:51:23;23.20;95.20
9941;DHT22;5009;50.656;7.188;2022-10-28T14:53:50;23.20;95.10
9941;DHT22;5009;50.656;7.188;2022-10-28T14:56:22;23.10;94.90
9941;DHT22;5009;50.656;7.188;2022-10-28T14:58:49;23.10;95.20
9941;DHT22;5009;50.656;7.188;2022-10-28T15:04:05;23.00;94.90
9941;DHT22;5009;50.656;7.188;2022-10-28T15:06:39;23.00;95.10
9941;DHT22;5009;50.656;7.188;2022-10-28T15:09:26;22.90;95.10
9941;DHT22;5009;50.656;7.188;2022-10-28T15:11:55;22.90;95.20
9941;DHT22;5009;50.656;7.188;2022-10-28T15:14:29;22.80;95.20
9941;DHT22;5009;50.656;7.188;2022-10-28T15:16:56;22.80;95.40
9941;DHT22;5009;50.656;7.188;2022-10-28T15:19:24;22.80;95.60
9941;DHT22;5009;50.656;7.188;2022-10-28T15:22:17;22.80;95.60
9941;DHT22;5009;50.656;7.188;2022-10-28T15:27:19;22.80;95.80
9941;DHT22;5009;50.656;7.188;2022-10-28T15:29:45;22.70;96.20
9941;DHT22;5009;50.656;7.188;2022-10-28T15:34:44;22.70;96.60
9941;DHT22;5009;50.656;7.188;2022-10-28T15:37:15;22.70;96.80
9941;DHT22;5009;50.656;7.188;2022-10-28T15:39:42;22.50;97.20
9941;DHT22;5009;50.656;7.188;2022-10-28T15:42:41;22.40;97.20
9941;DHT22;5009;50.656;7.188;2022-10-28T15:45:17;22.40;97.50
9941;DHT22;5009;50.656;7.188;2022-10-28T15:47:45;22.30;97.40
9941;DHT22;5009;50.656;7.188;2022-10-28T15:57:49;22.10;99.10
9941;DHT22;5009;50.656;7.188;2022-10-28T16:00:31;22.00;99.50
9941;DHT22;5009;50.656;7.188;2022-10-28T16:03:02;21.90;99.90
9941;DHT22;5009;50.656;7.188;2022-10-28T16:08:03;21.80;99.90
9941;DHT22;5009;50.656;7.188;2022-10-28T16:10:35;21.80;99.90
9941;DHT22;5009;50.656;7.188;2022-10-28T16:13:02;21.70;99.90
9941;DHT22;5009;50.656;7.188;2022-10-28T16:15:29;21.60;99.90
9941;DHT22;5009;50.656;7.188;2022-10-28T16:17:55;21.50;99.90
9941;DHT22;5009;50.656;7.188;2022-10-28T16:20:23;21.40;99.90
9941;DHT22;5009;50.656;7.188;2022-10-28T16:22:50;21.40;99.90
9941;DHT22;5009;50.656;7.188;2022-10-28T16:25:18;21.30;99.90
9941;DHT22;5009;50.656;7.188;2022-10-28T16:27:45;21.30;99.90
9941;DHT22;5009;50.656;7.188;2022-10-28T16:30:11;21.20;99.90
9941;DHT22;5009;50.656;7.188;2022-10-28T16:32:40;21.10;99.90
9941;DHT22;5009;50.656;7.188;2022-10-28T16:35:14;21.00;99.90
9941;DHT22;5009;50.656;7.188;2022-10-28T16:37:41;21.00;99.90
9941;DHT22;5009;50.656;7.188;2022-10-28T16:40:08;20.90;99.90
9941;DHT22;5009;50.656;7.188;2022-10-28T16:42:35;20.80;99.90
9941;DHT22;5009;50.656;7.188;2022-10-28T16:45:01;20.70;99.90
9941;DHT22;5009;50.656;7.188;2022-10-28T16:47:26;20.60;99.90
9941;DHT22;5009;50.656;7.188;2022-10-28T16:49:53;20.50;99.90
9941;DHT22;5009;50.656;7.188;2022-10-28T16:52:24;20.50;99.90
9941;DHT22;5009;50.656;7.188;2022-10-28T16:54:50;20.50;99.90
9941;DHT22;5009;50.656;7.188;2022-10-28T16:57:17;20.40;99.90
9941;DHT22;5009;50.656;7.188;2022-10-28T16:59:44;20.30;99.90
9941;DHT22;5009;50.656;7.188;2022-10-28T17:02:18;20.30;99.90
9941;DHT22;5009;50.656;7.188;2022-10-28T17:04:44;20.30;99.90
9941;DHT22;5009;50.656;7.188;2022-10-28T17:07:09;20.20;99.90
9941;DHT22;5009;50.656;7.188;2022-10-28T17:09:39;20.10;99.90
9941;DHT22;5009;50.656;7.188;2022-10-28T17:12:05;20.00;99.90
9941;DHT22;5009;50.656;7.188;2022-10-28T17:14:31;20.00;99.90
9941;DHT22;5009;50.656;7.188;2022-10-28T17:16:56;20.00;99.90
9941;DHT22;5009;50.656;7.188;2022-10-28T17:19:23;19.90;99.90
9941;DHT22;5009;50.656;7.188;2022-10-28T17:21:48;19.90;99.90
9941;DHT22;5009;50.656;7.188;2022-10-28T17:24:14;19.80;99.90
9941;DHT22;5009;50.656;7.188;2022-10-28T17:26:40;19.70;99.90
9941;DHT22;5009;50.656;7.188;2022-10-28T17:29:05;19.70;99.90
9941;DHT22;5009;50.656;7.188;2022-10-28T17:31:31;19.70;99.90
9941;DHT22;5009;50.656;7.188;2022-10-28T17:33:57;19.60;99.90
9941;DHT22;5009;50.656;7.188;2022-10-28T17:36:22;19.60;99.90
9941;DHT22;5009;50.656;7.188;2022-10-28T17:38:48;19.50;99.90
9941;DHT22;5009;50.656;7.188;2022-10-28T17:41:14;19.50;99.90
9941;DHT22;5009;50.656;7.188;2022-10-28T17:43:39;19.40;99.90
9941;DHT22;5009;50.656;7.188;2022-10-28T17:46:06;19.40;99.90
9941;DHT22;5009;50.656;7.188;2022-10-28T17:48:31;19.40;99.90
9941;DHT22;5009;50.656;7.188;2022-10-28T17:50:59;19.30;99.90
9941;DHT22;5009;50.656;7.188;2022-10-28T17:53:25;19.20;99.90
9941;DHT22;5009;50.656;7.188;2022-10-28T17:56:02;19.20;99.90
9941;DHT22;5009;50.656;7.188;2022-10-28T17:58:28;19.20;99.90
9941;DHT22;5009;50.656;7.188;2022-10-28T18:00:58;19.10;99.90
9941;DHT22;5009;50.656;7.188;2022-10-28T18:03:26;19.10;99.90
9941;DHT22;5009;50.656;7.188;2022-10-28T18:05:52;19.10;99.90
9941;DHT22;5009;50.656;7.188;2022-10-28T18:08:18;19.10;99.90
9941;DHT22;5009;50.656;7.188;2022-10-28T18:10:55;19.10;99.90
9941;DHT22;5009;50.656;7.188;2022-10-28T18:13:28;19.10;99.90
9941;DHT22;5009;50.656;7.188;2022-10-28T18:16:03;19.00;99.90
9941;DHT22;5009;50.656;7.188;2022-10-28T18:18:29;19.00;99.90
9941;DHT22;5009;50.656;7.188;2022-10-28T18:20:55;19.10;99.90
9941;DHT22;5009;50.656;7.188;2022-10-28T18:23:21;19.00;99.90
9941;DHT22;5009;50.656;7.188;2022-10-28T18:25:57;19.10;99.90
9941;DHT22;5009;50.656;7.188;2022-10-28T18:28:23;19.10;99.90
9941;DHT22;5009;50.656;7.188;2022-10-28T18:30:48;19.10;99.90
9941;DHT22;5009;50.656;7.188;2022-10-28T18:33:14;19.00;99.90
9941;DHT22;5009;50.656;7.188;2022-10-28T18:35:39;19.00;99.90
9941;DHT22;5009;50.656;7.188;2022-10-28T18:38:05;18.90;99.90
9941;DHT22;5009;50.656;7.188;2022-10-28T18:40:30;18.90;99.90
9941;DHT22;5009;50.656;7.188;2022-10-28T18:42:56;18.80;99.90
9941;DHT22;5009;50.656;7.188;2022-10-28T18:45:21;18.80;99.90
9941;DHT22;5009;50.656;7.188;2022-10-28T18:47:47;18.80;99.90
9941;DHT22;5009;50.656;7.188;2022-10-28T18:50:13;18.80;99.90
9941;DHT22;5009;50.656;7.188;2022-10-28T18:52:38;18.70;99.90